Airfield :
LOGIN :

Register | Disclaimer

   EN    FR    IT 

 










Legend :    VFR   Marginal VFR   IFR   Intensive IFR   Very Intensive IFR
Visi :
Ceiling :
>= 8 km
>= 3000ft
5 to 8 km
1000 to 3000 ft
1500m to 5 km
500 to 1000 ft
800 to 1500m
200 to 500 ft
< 800m
< 200 ft
Symbols :   Thunderstorms  Fog  Heavy snow  Heavy precipitations  Wind > 20 kt
SIGMETs :     Misc.  Thunderstorms  Icing  Turbulence  Mountain Waves  Volcanic Ashes






- Airport Elevation : 645 ft
- IATA code : DLE


LFGJ - Dole Tavaux

CURRENT METAR :
  • 181400Z AUTO 05009KT 9999 SCT041/// BKN049/// BKN060/// ///CB 09/04 Q1019 TEMPO 02015G25KT 3000 SHRA

EXPIRED METARs :
  • 181330Z AUTO 01017KT 9999 -RA FEW021/// BKN038/// BKN048/// ///CB 07/03 Q1020 TEMPO 02015G25KT 3000 SHRA
  • 181300Z AUTO 36012KT 330V050 9999 SCT035/// BKN076/// //////TCU 10/02 Q1019 TEMPO 02015G25KT 3000 SHRA SCT020CB
  • 181230Z AUTO 36013KT 330V040 9999 FEW030/// ///CB 09/02 Q1019 TEMPO 02015G25KT 3000 SHRA
  • 181200Z AUTO 36013KT 9999 FEW030/// SCT062/// OVC072/// //////TCU 08/02 Q1019 TEMPO 02015G25KT 3000 SHRA SCT020CB
  • 181130Z AUTO 36010KT 9999 -RA SCT033/// BKN044/// BKN052/// ///TCU 07/02 Q1019 TEMPO 02015G25KT 3000 SHRA SCT020CB
  • 181100Z AUTO 35010KT 320V030 9999 FEW030/// BKN066/// OVC076/// ///TCU 08/02 Q1019 TEMPO 02015G25KT 3000 SHRA SCT020CB
  • 181030Z AUTO 36012KT 330V030 9999 SCT030/// BKN040/// BKN050/// ///TCU 08/02 Q1019 TEMPO 02015G25KT 3000 SHRA SCT020CB
  • 181000Z AUTO 01011KT 330V030 9999 FEW025 OVC060 08/03 Q1018 NOSIG
  • 180930Z AUTO 01010KT 330V050 9999 FEW023 SCT040 BKN056 07/03 Q1018 NOSIG

TAF TAF LFGJ
Valid from the 18 at 12:00 until the 18 at 21:00 UTC


181100Z 1812/1821 36010KT 9999 FEW025TCU BKN030
PROB40
TEMPO 1812/1817 -SHRA FEW025CB
PROB30
TEMPO 1812/1816 02015G25KT 3000 SHRA SCT020CB



MET'MAP, your aeronautical weather chart ! - Copyright ORBIFLY December 2007 - Disclaimer

ORBIFLY MET'MAP TEAM :

Programming & Development : Alexandra Zaïnal
Original concept : Baudouin d'Aumeries
Technical & hardware support : Manuel Goepfert
Assistance : Marc-Olivier Méhu




SOURCES & CREDITS :

   NOAA